Dauntless Aviation
Greetings, Guest! To participate, [sign up for a free account] or [log in]
Airports Europe United Kingdom
EGLC
LCY

London City

London, UNITED KINGDOM

Airport Info
Edit

Location

Latitude / Longitude: 51°30'18"N / 0°3'12"E
  51°30.3'N / 0°3.21'E
  51.5050 / 0.0535

Nearby radio navigation aids

LCY CITY NDB on field.

Runway Information

Runway 10 /28

Dimensions: 4948 x 98 ft.
Surface: ASP
 
Runway 10
Runway 28
Latitude: 51.505528 51.504922
Longitude: 0.045753 0.064953
Elevation: 16 ft. 16 ft.
Runway true heading: 91.1 271.1
 

Instrument Procedures

  Control Zone and Control Area Chart
  Aircraft Parking/Docking Chart
  Aerodrome Chart

STARs (Standard Terminal Arrivals)

  STAR via SPEAR (Northwest)
  STAR via ALKIN (South)
  STAR via SPEAR (East)
  STAR via SPEAR (West)
  STAR via SPEAR (Alternate Holding at LOGAN and ALKIN)

IAPs (Instrument Approach Procedures)

  LOC/DME/NDB (L) Rwy 27 (Aircraft CAT A/B/C)
  Visual Approach Profile Rwy 27
  ILS (5.5°GP) /DME/NDB (L) Rwy 27 (Aircraft CAT A/B/C)
  Visual Approach Profile Rwy 09
  LOC/DME/NDB (L) Rwy 09
  ATC Surveillance Minimum Altitude Chart
  ILS (5.5°GP) /DME/NDB (L) Rwy 09 (Aircraft CAT A/B/C)

Departure Procedures

  SID DOVER/LYDD
  SID CLACTON
  SID SOUTHAMPTON
  SID BROOKMANS PARK/COMPTON
Satellite photo at:
Airport distance calculator
From:
Weather Reports

METAR

EGLC

EGLC 012250Z AUTO 34002KT 9999 FEW024/// OVC045/// 16/15 Q1021
EGWU
17.8nm W
EGWU 012250Z AUTO 26004KT 9999 // BKN049/// 15/14 Q1021
EGLL
18.9nm SW
EGLL 012250Z 30002KT 9999 BKN049 15/14 Q1022
EGSS
23.5nm N
EGSS 012250Z 33005KT 9999 SCT045 13/13 Q1021
EGKK
23.8nm S
EGKK 012250Z 04004KT 9999 SCT006 BKN045 16/16 Q1021
EGMC
24.4nm NE
EGMC 012250Z 33005KT 9999 FEW040 15/13 Q1021

TAF

EGWU
17.8nm W
TAF EGWU 011633Z 0118/0212 33006KT 9999 SCT015 BKN040 BECMG 0118/0120 SCT025 BECMG 0202/0204 6000 BR BKN005 PROB40 0204/0206 2000 BKN002 BECMG 0206/0208 BKN012 BECMG 0209/0212 SCT025
EGLL
18.9nm SW
TAF EGLL 011703Z 0118/0224 30008KT 9999 SCT012 PROB40 TEMPO 0118/0120 5000 SHRA BKN012 BECMG 0202/0205 5000 HZ BKN005 PROB30 0203/0207 1200 BR SCT001 BKN003 BECMG 0207/0210 9999 NSW SCT025
EGSS
23.5nm N
TAF AMD EGSS 012230Z 0122/0224 33004KT 9999 SCT040 PROB30 0122/0124 4000 BR BKN005 BECMG 0200/0203 4000 BR BKN002 PROB40 0201/0207 0300 FG OVC001 BECMG 0207/0210 8000 NSW BKN010 BECMG 0210/0213 9999 SCT015 PROB30 0221/0224 8000 BKN010
EGKK
23.8nm S
TAF AMD EGKK 012130Z 0121/0224 VRB05KT 7000 -RADZ BKN008 BECMG 0121/0123 9999 NSW SCT040 PROB40 0123/0201 7000 BECMG 0201/0204 5000 HZ BKN006 PROB30 0204/0207 2000 BR OVC002 BECMG 0208/0210 9999 NSW BKN013 BECMG 0210/0212 SCT025
EGMC
24.4nm NE
TAF EGMC 011958Z 0121/0206 35007KT 9999 SCT012 BKN030 PROB30 TEMPO 0121/0123 9000 BKN012 BECMG 0123/0202 4000 BR BKN005 TEMPO 0202/0206 BKN003
EGGW
26.8nm NW
TAF AMD EGGW 011827Z 0118/0218 02008KT 9999 SCT025 TEMPO 0118/0123 BKN008 BECMG 0123/0202 3000 BR BKN004 PROB40 0203/0207 0300 FG OVC001 BECMG 0207/0210 9999 NSW SCT015
Safelog

 

Dauntless Aviation

© 2007-2014 Dauntless Aviation, all rights reserved
Information provided via PilotNav comes from a variety of official and unofficial data sources. As errors are possible, do not use PilotNav for primary flight planning purposes. Verify any information that you receive via PilotNav with current and canonical charts and other official documents. The material in this database is subject to database copyrights held by Dauntless Aviation and may not be copied without the express permission of Dauntless Aviation - licenses for use of part of all of this data are available for purchase; enquire via the Dauntless Aviation helpdesk. A number of mechanisms and markers exist in the database to protect against and identify infringement / copyright. Automated queries against this website are stictly prohibited, and all activity is logged and analyzed.